Time;durP1;ratioP1;P1;durP2;ratioP2;P2;SDS_P1;SDS_P2;PMS_P1;PMS_P2;Temp;Humidity;BMP_temperature;BMP_pressure;BME280_temperature;BME280_humidity;BME280_pressure;Samples;Min_cycle;Max_cycle;Signal;HPM_P1;HPM_P2
2022/06/19 00:02:04;;;;;;;;;;;;;;;24.83;23.33;95071.84;5064595;28;19954;-60
2022/06/19 00:04:30;;;;;;;;;;;;;;;24.70;23.95;95067.84;5064461;28;20443;-60
2022/06/19 00:06:56;;;;;;;;;;;;;;;24.68;24.11;95055.63;5064541;28;20017;-58
2022/06/19 00:09:22;;;;;;;;;;;;;;;24.77;24.09;95053.09;5064157;28;20009;-60
2022/06/19 00:11:47;;;;;;;;;;;;;;;24.67;23.95;95051.25;5064381;28;20666;-60
2022/06/19 00:14:12;;;;;;;;;;;;;;;24.51;23.98;95047.84;5064037;28;19954;-59
2022/06/19 00:16:37;;;;;;;;;;;;;;;24.67;23.77;95034.94;5064114;28;20102;-59
2022/06/19 00:19:03;;;;;;;;;;;;;;;24.58;24.66;95029.31;5064367;28;20025;-60
2022/06/19 00:21:28;;;;;;;;;;;;;;;24.62;23.70;95016.75;5063638;28;19951;-61
2022/06/19 00:23:53;;;;;;;;;;;;;;;24.55;23.89;95013.53;5063275;28;19940;-59
2022/06/19 00:26:18;;;;;;;;;;;;;;;24.56;24.13;95009.72;5063902;28;19953;-60
2022/06/19 00:28:46;;;;;;;;;;;;;;;24.24;23.86;95016.44;5063761;28;20045;-59
2022/06/19 00:31:11;;;;;;;;;;;;;;;24.36;23.91;95013.38;5063824;28;19947;-60
2022/06/19 00:33:37;;;;;;;;;;;;;;;24.22;23.71;95003.13;5063799;28;19949;-60
2022/06/19 00:36:02;;;;;;;;;;;;;;;24.33;24.02;95006.59;5063676;28;19939;-60
2022/06/19 00:38:27;;;;;;;;;;;;;;;24.30;23.50;94999.78;5063679;28;20020;-59
2022/06/19 00:40:56;;;;;;;;;;;;;;;24.45;23.87;95004.34;5045560;28;19940;-61
2022/06/19 00:43:21;;;;;;;;;;;;;;;24.37;24.05;94999.50;5064388;28;20432;-59
2022/06/19 00:45:50;;;;;;;;;;;;;;;24.03;24.35;94994.81;5063539;28;19987;-61
2022/06/19 00:48:18;;;;;;;;;;;;;;;24.23;24.02;94996.56;5046065;28;19950;-59
2022/06/19 00:50:47;;;;;;;;;;;;;;;24.30;23.63;94988.13;5063528;28;19965;-59
2022/06/19 00:53:13;;;;;;;;;;;;;;;24.29;24.21;95000.06;5045178;28;20032;-60
2022/06/19 00:55:40;;;;;;;;;;;;;;;24.25;23.57;94994.41;5045814;28;19932;-60
2022/06/19 00:58:13;;;;;;;;;;;;;;;23.75;23.99;94983.50;5063183;28;20137;-60
2022/06/19 01:00:38;;;;;;;;;;;;;;;24.18;24.12;94983.84;5063355;28;19929;-60
2022/06/19 01:03:06;;;;;;;;;;;;;;;24.24;24.37;94983.81;5045017;28;19960;-60
2022/06/19 01:05:31;;;;;;;;;;;;;;;24.19;24.97;94974.59;5045285;28;20384;-60
2022/06/19 01:07:56;;;;;;;;;;;;;;;24.14;24.56;94977.34;5050441;28;19943;-59
2022/06/19 01:10:22;;;;;;;;;;;;;;;24.31;24.56;94976.16;5062987;28;20418;-61
2022/06/19 01:12:47;;;;;;;;;;;;;;;24.09;24.09;94966.47;5062634;28;19931;-60
2022/06/19 01:15:13;;;;;;;;;;;;;;;24.16;24.40;94958.00;5045545;28;20265;-60
2022/06/19 01:17:38;;;;;;;;;;;;;;;24.07;24.15;94946.94;5044746;28;20439;-60
2022/06/19 01:20:04;;;;;;;;;;;;;;;23.98;24.40;94948.63;5063306;28;20000;-60
2022/06/19 01:22:39;;;;;;;;;;;;;;;23.88;24.25;94936.72;5077830;28;20376;-60
2022/06/19 01:25:09;;;;;;;;;;;;;;;23.94;24.44;94938.28;5063092;28;20006;-61
2022/06/19 01:30:19;;;;;;;;;;;;;;;24.00;24.78;94938.28;5040329;28;19953;-59
2022/06/19 01:32:45;;;;;;;;;;;;;;;23.83;24.78;94935.94;5062754;28;19936;-60
2022/06/19 01:35:11;;;;;;;;;;;;;;;23.88;24.78;94931.28;5045253;28;19936;-58
2022/06/19 01:37:36;;;;;;;;;;;;;;;23.90;24.79;94931.00;5044706;28;19967;-59
2022/06/19 01:40:13;;;;;;;;;;;;;;;23.99;24.60;94929.31;5063157;28;20545;-59
2022/06/19 01:42:38;;;;;;;;;;;;;;;23.72;25.60;94918.84;5049708;28;20009;-60
2022/06/19 01:45:04;;;;;;;;;;;;;;;23.79;24.65;94922.06;5062204;28;20150;-59
2022/06/19 01:47:29;;;;;;;;;;;;;;;23.84;24.68;94896.78;5062919;28;19955;-58
2022/06/19 01:49:54;;;;;;;;;;;;;;;23.88;25.00;94893.25;5062155;28;20332;-60
2022/06/19 01:52:20;;;;;;;;;;;;;;;23.73;24.75;94894.13;5062668;28;19978;-59
2022/06/19 01:54:53;;;;;;;;;;;;;;;23.74;25.23;94897.66;5062228;28;19924;-59
2022/06/19 01:57:18;;;;;;;;;;;;;;;23.91;24.75;94898.13;5062478;28;19993;-59
2022/06/19 01:59:43;;;;;;;;;;;;;;;23.59;25.81;94898.53;5044795;28;19986;-58
2022/06/19 02:02:09;;;;;;;;;;;;;;;23.77;24.83;94897.09;5062415;28;20438;-61
2022/06/19 02:04:34;;;;;;;;;;;;;;;23.71;25.19;94900.91;5044622;28;20280;-58
2022/06/19 02:07:00;;;;;;;;;;;;;;;23.67;25.39;94898.78;5062154;28;19960;-60
2022/06/19 02:09:25;;;;;;;;;;;;;;;23.67;25.14;94890.63;5043943;28;19963;-61
2022/06/19 02:11:51;;;;;;;;;;;;;;;23.69;25.62;94893.84;5061627;28;19936;-60
2022/06/19 02:14:16;;;;;;;;;;;;;;;23.78;25.20;94890.56;5061933;28;20005;-59
2022/06/19 02:16:42;;;;;;;;;;;;;;;23.83;25.16;94876.97;5043959;28;19959;-60
2022/06/19 02:19:07;;;;;;;;;;;;;;;23.65;25.19;94887.38;5061282;28;20074;-59
2022/06/19 02:21:34;;;;;;;;;;;;;;;23.72;25.13;94878.09;5049468;28;19956;-58
2022/06/19 02:23:59;;;;;;;;;;;;;;;23.51;25.46;94883.63;5062117;28;20410;-59
2022/06/19 02:26:24;;;;;;;;;;;;;;;23.38;26.31;94885.88;5061942;28;20065;-59
2022/06/19 02:28:50;;;;;;;;;;;;;;;23.56;25.49;94884.41;5061651;28;20385;-60
2022/06/19 02:31:16;;;;;;;;;;;;;;;23.63;25.88;94884.13;5061899;28;20297;-59
2022/06/19 02:33:51;;;;;;;;;;;;;;;23.57;26.10;94879.81;5061845;28;19956;-59
2022/06/19 02:36:35;;;;;;;;;;;;;;;23.32;25.68;94876.13;5061975;28;19957;-60
2022/06/19 02:39:11;;;;;;;;;;;;;;;23.52;26.49;94866.25;5061563;28;20527;-59
2022/06/19 02:41:42;;;;;;;;;;;;;;;23.36;25.86;94858.19;5043698;28;20029;-59
2022/06/19 02:44:08;;;;;;;;;;;;;;;23.30;26.52;94862.00;5061937;28;20256;-60
2022/06/19 02:46:33;;;;;;;;;;;;;;;23.49;25.67;94848.59;5061331;28;20435;-59
2022/06/19 02:48:58;;;;;;;;;;;;;;;23.49;25.60;94851.31;5061816;28;19995;-59
2022/06/19 02:51:23;;;;;;;;;;;;;;;23.40;25.68;94853.00;5061908;28;19941;-60
2022/06/19 02:53:48;;;;;;;;;;;;;;;23.41;25.90;94839.16;5061698;28;19954;-59
2022/06/19 02:56:14;;;;;;;;;;;;;;;23.28;26.94;94842.47;5062198;28;20037;-60
2022/06/19 02:58:39;;;;;;;;;;;;;;;23.47;25.73;94836.41;5061458;28;19965;-60
2022/06/19 03:01:04;;;;;;;;;;;;;;;23.37;26.59;94829.13;5061569;28;19994;-60
2022/06/19 03:03:35;;;;;;;;;;;;;;;23.28;26.01;94835.16;5061833;28;19943;-60
2022/06/19 03:06:00;;;;;;;;;;;;;;;23.27;26.84;94832.69;5043660;28;20363;-60
2022/06/19 03:08:25;;;;;;;;;;;;;;;23.20;26.25;94832.19;5061732;28;19959;-61
2022/06/19 03:10:51;;;;;;;;;;;;;;;22.99;26.42;94832.25;5061760;28;19960;-60
2022/06/19 03:13:19;;;;;;;;;;;;;;;23.10;26.75;94831.13;5061604;28;20054;-60
2022/06/19 03:15:44;;;;;;;;;;;;;;;23.10;26.54;94831.13;5061967;28;19948;-59
2022/06/19 03:18:10;;;;;;;;;;;;;;;23.00;27.06;94829.28;5043422;28;20014;-65
2022/06/19 03:20:35;;;;;;;;;;;;;;;22.89;26.96;94828.50;5061581;28;20000;-60
2022/06/19 03:23:00;;;;;;;;;;;;;;;22.96;27.01;94832.81;5061206;28;19960;-60
2022/06/19 03:25:25;;;;;;;;;;;;;;;23.00;27.15;94825.72;5064461;28;19963;-60
2022/06/19 03:27:51;;;;;;;;;;;;;;;22.87;27.53;94832.56;5065323;28;19939;-61
2022/06/19 03:30:17;;;;;;;;;;;;;;;22.78;27.64;94832.34;5065204;28;19974;-59
2022/06/19 03:32:42;;;;;;;;;;;;;;;22.83;27.42;94840.44;5064799;28;19948;-61
2022/06/19 03:35:07;;;;;;;;;;;;;;;22.73;27.83;94835.03;5065426;28;20025;-59
2022/06/19 03:37:33;;;;;;;;;;;;;;;22.58;28.75;94827.78;5064809;28;20035;-60
2022/06/19 03:39:58;;;;;;;;;;;;;;;22.60;28.49;94833.75;5065307;28;20372;-61
2022/06/19 03:42:23;;;;;;;;;;;;;;;22.59;28.36;94841.06;5064548;28;19961;-58
2022/06/19 03:44:48;;;;;;;;;;;;;;;22.44;28.71;94838.34;5065047;28;20056;-59
2022/06/19 03:47:24;;;;;;;;;;;;;;;22.35;29.17;94827.22;5065288;28;19948;-60
2022/06/19 03:49:49;;;;;;;;;;;;;;;22.21;28.96;94826.97;5064712;28;20048;-59
2022/06/19 03:52:14;;;;;;;;;;;;;;;22.16;29.18;94825.06;5064949;28;20401;-60
2022/06/19 03:54:40;;;;;;;;;;;;;;;22.08;29.90;94829.16;5064888;28;20600;-59
2022/06/19 03:57:05;;;;;;;;;;;;;;;21.98;29.43;94823.72;5064802;28;19960;-59
2022/06/19 03:59:30;;;;;;;;;;;;;;;22.10;29.82;94823.47;5064929;28;19970;-59
2022/06/19 04:01:55;;;;;;;;;;;;;;;22.11;29.40;94827.81;5058823;28;20464;-60
2022/06/19 04:04:21;;;;;;;;;;;;;;;22.06;29.56;94827.81;5056958;28;20090;-60
2022/06/19 04:06:46;;;;;;;;;;;;;;;22.03;29.92;94829.16;5063991;28;19966;-58
2022/06/19 04:09:15;;;;;;;;;;;;;;;22.10;29.18;94818.06;5064336;28;20058;-60
2022/06/19 04:11:41;;;;;;;;;;;;;;;22.18;29.50;94830.22;5064285;28;19947;-60
2022/06/19 04:14:07;;;;;;;;;;;;;;;22.15;29.48;94827.00;5064267;28;19964;-60
2022/06/19 04:16:35;;;;;;;;;;;;;;;22.23;29.26;94822.91;5064899;28;19945;-60
2022/06/19 04:19:02;;;;;;;;;;;;;;;22.26;29.93;94826.97;5064359;28;19979;-60
2022/06/19 04:21:28;;;;;;;;;;;;;;;22.31;29.39;94826.97;5060520;28;19979;-60
2022/06/19 04:23:56;;;;;;;;;;;;;;;22.44;29.36;94817.47;5052777;28;20017;-60
2022/06/19 04:26:21;;;;;;;;;;;;;;;22.53;29.49;94815.84;5063961;28;19964;-59
2022/06/19 04:28:47;;;;;;;;;;;;;;;22.50;29.48;94819.06;5064008;28;19956;-60
2022/06/19 04:31:12;;;;;;;;;;;;;;;22.60;29.36;94815.56;5064198;28;19946;-58
2022/06/19 04:33:38;;;;;;;;;;;;;;;22.61;28.93;94814.47;5063892;28;19953;-58
2022/06/19 04:36:05;;;;;;;;;;;;;;;22.94;28.92;94819.50;5063630;28;19960;-60
2022/06/19 04:38:30;;;;;;;;;;;;;;;23.00;28.45;94823.03;5063829;28;19971;-59
2022/06/19 04:40:55;;;;;;;;;;;;;;;23.01;28.28;94820.03;5063621;28;19953;-61
2022/06/19 04:43:21;;;;;;;;;;;;;;;23.14;27.80;94810.50;5064049;28;19948;-61
2022/06/19 04:45:46;;;;;;;;;;;;;;;23.26;28.29;94812.09;5063468;28;20057;-61
2022/06/19 04:48:11;;;;;;;;;;;;;;;23.25;28.33;94819.41;5063775;28;20298;-60
2022/06/19 04:50:36;;;;;;;;;;;;;;;23.38;28.13;94811.72;5062979;28;20540;-60
2022/06/19 04:53:02;;;;;;;;;;;;;;;23.54;27.84;94813.28;5063096;28;20163;-61
2022/06/19 04:55:27;;;;;;;;;;;;;;;23.37;28.22;94810.13;5063537;28;20245;-60
2022/06/19 04:57:52;;;;;;;;;;;;;;;23.37;28.01;94819.09;5063365;28;19954;-60
2022/06/19 05:00:19;;;;;;;;;;;;;;;23.71;27.65;94819.41;5063309;28;20317;-60
2022/06/19 05:02:47;;;;;;;;;;;;;;;23.79;27.44;94824.25;5062883;28;19998;-61
2022/06/19 05:05:14;;;;;;;;;;;;;;;23.94;27.23;94816.00;5063208;28;19949;-59
2022/06/19 05:07:39;;;;;;;;;;;;;;;24.15;27.15;94813.13;5063299;28;19933;-60
2022/06/19 05:10:05;;;;;;;;;;;;;;;24.14;27.17;94807.97;5063116;28;20510;-62
2022/06/19 05:12:30;;;;;;;;;;;;;;;24.31;28.15;94813.78;5063500;28;19991;-61
2022/06/19 05:14:55;;;;;;;;;;;;;;;24.39;27.25;94822.44;5062191;28;19917;-61
2022/06/19 05:17:21;;;;;;;;;;;;;;;24.57;26.83;94826.34;5062735;28;19949;-62
2022/06/19 05:19:46;;;;;;;;;;;;;;;23.99;27.45;94827.94;5063313;28;19944;-60
2022/06/19 05:22:11;;;;;;;;;;;;;;;24.41;26.85;94837.38;5061151;28;20369;-60
2022/06/19 05:24:37;;;;;;;;;;;;;;;24.44;26.79;94823.22;5063510;28;19988;-62
2022/06/19 05:27:06;;;;;;;;;;;;;;;24.66;26.79;94830.06;5044579;28;19954;-61
2022/06/19 05:29:32;;;;;;;;;;;;;;;24.64;27.28;94834.19;5062599;28;19991;-61
2022/06/19 05:31:57;;;;;;;;;;;;;;;24.94;26.46;94841.22;5051164;28;19977;-61
2022/06/19 05:34:23;;;;;;;;;;;;;;;24.80;26.20;94824.75;5049520;28;19987;-59
2022/06/19 05:36:48;;;;;;;;;;;;;;;24.74;27.05;94825.91;5062844;28;19956;-57
2022/06/19 05:39:13;;;;;;;;;;;;;;;24.94;26.94;94808.56;5063276;28;20026;-57
2022/06/19 05:41:39;;;;;;;;;;;;;;;25.25;26.49;94826.41;5062922;28;19958;-57
2022/06/19 05:44:04;;;;;;;;;;;;;;;25.08;26.58;94810.56;5063202;28;19940;-58
2022/06/19 05:46:29;;;;;;;;;;;;;;;25.08;27.43;94810.56;5062122;28;19954;-59
2022/06/19 05:48:55;;;;;;;;;;;;;;;25.28;26.92;94805.94;5062626;28;19956;-57
2022/06/19 05:51:21;;;;;;;;;;;;;;;25.55;26.46;94793.63;5063250;28;19953;-58
2022/06/19 05:53:50;;;;;;;;;;;;;;;25.69;27.08;94796.41;5062854;28;20404;-59
2022/06/19 05:56:15;;;;;;;;;;;;;;;25.77;26.62;94790.31;5063113;28;20016;-59
2022/06/19 05:58:41;;;;;;;;;;;;;;;26.04;25.97;94801.63;5062782;28;20007;-61
2022/06/19 06:01:07;;;;;;;;;;;;;;;26.14;26.48;94779.66;5055216;28;20418;-60
2022/06/19 06:03:32;;;;;;;;;;;;;;;24.91;27.64;94802.91;5059376;28;19938;-60
2022/06/19 06:06:00;;;;;;;;;;;;;;;25.73;26.61;94803.69;5058738;28;20037;-58
2022/06/19 06:08:26;;;;;;;;;;;;;;;25.59;26.61;94794.66;5058750;28;19998;-60
2022/06/19 06:10:51;;;;;;;;;;;;;;;25.93;25.92;94793.59;5058382;28;20009;-59
2022/06/19 06:13:17;;;;;;;;;;;;;;;25.78;26.42;94794.66;5058366;28;19928;-60
2022/06/19 06:15:42;;;;;;;;;;;;;;;26.29;25.38;94792.19;5058726;28;19923;-59
2022/06/19 06:18:08;;;;;;;;;;;;;;;25.71;25.80;94799.66;5040067;28;19924;-56
2022/06/19 06:20:33;;;;;;;;;;;;;;;25.86;26.18;94798.59;5057889;28;19923;-58
2022/06/19 06:22:58;;;;;;;;;;;;;;;26.35;25.41;94817.47;5056289;28;19964;-57
2022/06/19 06:25:23;;;;;;;;;;;;;;;25.52;26.79;94811.38;5058552;28;19951;-56
2022/06/19 06:27:49;;;;;;;;;;;;;;;26.34;25.51;94815.84;5058758;28;19942;-58
2022/06/19 06:30:14;;;;;;;;;;;;;;;24.35;29.08;94813.25;5058528;28;19951;-57
2022/06/19 06:32:39;;;;;;;;;;;;;;;25.03;28.13;94810.63;5057895;28;19920;-58
2022/06/19 06:35:05;;;;;;;;;;;;;;;25.96;27.21;94811.25;5057884;28;20340;-58
2022/06/19 06:37:30;;;;;;;;;;;;;;;25.34;27.67;94807.50;5057676;28;20281;-58
2022/06/19 06:39:55;;;;;;;;;;;;;;;25.80;27.12;94806.03;5058597;28;19924;-57
2022/06/19 06:42:21;;;;;;;;;;;;;;;25.05;28.36;94806.50;5057527;28;19928;-57
2022/06/19 06:44:46;;;;;;;;;;;;;;;26.30;26.76;94814.84;5058119;28;20327;-58
2022/06/19 06:47:12;;;;;;;;;;;;;;;26.06;26.77;94819.31;5058263;28;19931;-58
2022/06/19 06:49:37;;;;;;;;;;;;;;;26.14;25.97;94806.91;5058371;28;20020;-57
2022/06/19 06:52:02;;;;;;;;;;;;;;;25.71;28.19;94808.66;5058702;28;19978;-57
2022/06/19 06:54:28;;;;;;;;;;;;;;;24.59;28.95;94807.84;5058370;28;19977;-59
2022/06/19 06:56:56;;;;;;;;;;;;;;;26.01;26.99;94815.81;5057234;28;19927;-58
2022/06/19 06:59:21;;;;;;;;;;;;;;;26.18;26.71;94815.31;5061836;28;20403;-58
2022/06/19 07:01:46;;;;;;;;;;;;;;;25.31;28.15;94800.75;5061991;28;19960;-59
2022/06/19 07:04:11;;;;;;;;;;;;;;;26.24;26.41;94806.72;5062719;28;20443;-58
2022/06/19 07:06:37;;;;;;;;;;;;;;;25.93;27.17;94803.69;5062086;28;20400;-59
2022/06/19 07:09:02;;;;;;;;;;;;;;;26.21;26.36;94817.44;5064741;28;19928;-59
2022/06/19 07:11:29;;;;;;;;;;;;;;;26.26;26.31;94824.69;5066112;28;20021;-59
2022/06/19 07:13:54;;;;;;;;;;;;;;;26.74;25.91;94812.69;5065191;28;19950;-58
2022/06/19 07:16:19;;;;;;;;;;;;;;;25.78;27.19;94827.34;5052963;28;19939;-59
2022/06/19 07:18:45;;;;;;;;;;;;;;;26.71;26.58;94827.75;5065770;28;19973;-59
2022/06/19 07:21:11;;;;;;;;;;;;;;;26.67;26.76;94826.72;5065417;28;19951;-59
2022/06/19 07:23:36;;;;;;;;;;;;;;;26.63;26.45;94831.19;5066343;28;19936;-58
2022/06/19 07:26:01;;;;;;;;;;;;;;;26.60;26.63;94829.03;5065785;28;19960;-59
2022/06/19 07:28:27;;;;;;;;;;;;;;;23.92;30.53;94837.22;5065627;28;19990;-60
2022/06/19 07:30:53;;;;;;;;;;;;;;;24.70;29.64;94838.47;5065605;28;19996;-59
2022/06/19 07:33:18;;;;;;;;;;;;;;;24.90;28.98;94834.75;5065582;28;19955;-58
2022/06/19 07:35:43;;;;;;;;;;;;;;;25.01;28.57;94824.53;5066274;28;20324;-59
2022/06/19 07:38:09;;;;;;;;;;;;;;;25.88;27.93;94825.56;5065486;28;19964;-59
2022/06/19 07:40:34;;;;;;;;;;;;;;;25.01;28.97;94835.41;5065265;28;19972;-60
2022/06/19 07:43:00;;;;;;;;;;;;;;;25.03;29.17;94824.25;5064786;28;20468;-60
2022/06/19 07:45:26;;;;;;;;;;;;;;;24.18;31.79;94841.66;5065166;28;19948;-60
2022/06/19 07:50:35;;;;;;;;;;;;;;;22.20;33.74;94850.56;5064755;28;19982;-60
2022/06/19 07:53:00;;;;;;;;;;;;;;;23.77;32.21;94850.94;5063957;28;20391;-60
2022/06/19 07:55:26;;;;;;;;;;;;;;;23.75;30.89;94853.91;5065629;28;20133;-58
2022/06/19 07:57:51;;;;;;;;;;;;;;;24.19;31.28;94868.56;5064954;28;20417;-60
2022/06/19 08:00:27;;;;;;;;;;;;;;;24.18;31.17;94877.81;5065425;28;20002;-59
2022/06/19 08:02:52;;;;;;;;;;;;;;;24.23;31.76;94887.03;5063575;28;19953;-59
2022/06/19 08:05:18;;;;;;;;;;;;;;;24.42;31.55;94892.59;5065089;28;20334;-59
2022/06/19 08:07:43;;;;;;;;;;;;;;;24.57;32.54;94884.28;5064163;28;19932;-58
2022/06/19 08:10:11;;;;;;;;;;;;;;;23.20;34.27;94906.31;5063610;28;20037;-59
2022/06/19 08:12:36;;;;;;;;;;;;;;;22.28;37.56;94925.94;5047268;28;20441;-58
2022/06/19 08:15:02;;;;;;;;;;;;;;;21.83;39.97;94939.13;5064697;28;20005;-59
2022/06/19 08:17:27;;;;;;;;;;;;;;;21.24;42.02;94943.72;5065079;28;20400;-58
2022/06/19 08:19:52;;;;;;;;;;;;;;;20.44;43.23;94967.81;5063735;28;20486;-59
2022/06/19 08:22:18;;;;;;;;;;;;;;;19.99;45.42;94996.00;5059342;28;20027;-60
2022/06/19 08:24:43;;;;;;;;;;;;;;;19.14;46.18;94997.88;5046365;28;20047;-59
2022/06/19 08:27:08;;;;;;;;;;;;;;;18.77;47.16;95018.91;5064965;28;20328;-58
2022/06/19 08:29:34;;;;;;;;;;;;;;;19.05;45.66;94990.22;5064619;28;20076;-58
2022/06/19 08:31:59;;;;;;;;;;;;;;;19.76;45.17;94969.00;5065120;28;20013;-58
2022/06/19 08:34:26;;;;;;;;;;;;;;;20.69;41.21;94946.66;5046791;28;20039;-58
2022/06/19 08:36:51;;;;;;;;;;;;;;;21.35;41.23;94956.25;5064040;28;20072;-57
2022/06/19 08:39:16;;;;;;;;;;;;;;;21.06;40.57;94955.81;5046845;28;20072;-58
2022/06/19 08:41:44;;;;;;;;;;;;;;;22.10;38.71;94948.13;5064455;28;19968;-58
2022/06/19 08:44:29;;;;;;;;;;;;;;;22.83;36.50;94948.16;5064860;28;19942;-59
2022/06/19 08:46:57;;;;;;;;;;;;;;;22.11;37.85;94984.97;5063831;28;19968;-59
2022/06/19 08:49:27;;;;;;;;;;;;;;;20.52;40.71;94982.72;5064411;28;19964;-58
2022/06/19 08:51:52;;;;;;;;;;;;;;;19.75;41.15;95007.84;5028154;28;19959;-58
2022/06/19 08:54:20;;;;;;;;;;;;;;;19.77;41.55;94988.72;5045864;28;19975;-58
2022/06/19 08:57:06;;;;;;;;;;;;;;;20.06;41.18;94970.41;5064008;28;19957;-59
2022/06/19 08:59:42;;;;;;;;;;;;;;;20.70;39.81;94961.81;5063524;28;19969;-59
2022/06/19 09:02:10;;;;;;;;;;;;;;;20.95;39.46;94976.59;5047701;28;19979;-58
2022/06/19 09:07:40;;;;;;;;;;;;;;;20.61;39.79;94972.25;5064088;28;20458;-58
2022/06/19 09:10:29;;;;;;;;;;;;;;;20.74;40.81;94960.22;5063634;28;20045;-59
2022/06/19 09:13:00;;;;;;;;;;;;;;;20.38;41.21;94982.34;5044057;28;19956;-59
2022/06/19 09:15:30;;;;;;;;;;;;;;;19.65;42.82;94978.06;5063702;28;20020;-59
2022/06/19 09:18:00;;;;;;;;;;;;;;;19.53;42.78;94995.19;5045416;28;20300;-60
2022/06/19 09:20:31;;;;;;;;;;;;;;;19.68;43.11;94999.94;5061047;28;19971;-58
2022/06/19 09:23:02;;;;;;;;;;;;;;;20.20;41.94;94999.75;5060826;28;20100;-59
2022/06/19 09:25:27;;;;;;;;;;;;;;;19.37;43.29;95013.06;5063974;28;20077;-58
2022/06/19 09:27:59;;;;;;;;;;;;;;;19.99;44.41;95020.31;5063859;28;19963;-60
2022/06/19 09:30:45;;;;;;;;;;;;;;;19.28;44.51;95030.75;5045436;28;20058;-59
2022/06/19 09:33:19;;;;;;;;;;;;;;;18.79;45.78;95034.84;5063503;28;19983;-58
2022/06/19 09:35:47;;;;;;;;;;;;;;;18.35;45.18;95046.22;5061802;28;19956;-59
2022/06/19 09:38:14;;;;;;;;;;;;;;;18.33;45.61;95033.00;5041800;28;20003;-59
2022/06/19 09:40:40;;;;;;;;;;;;;;;18.31;44.67;95045.88;5045668;28;20402;-59
2022/06/19 09:43:20;;;;;;;;;;;;;;;17.78;45.69;95044.03;5042358;28;19985;-59
2022/06/19 09:45:51;;;;;;;;;;;;;;;18.11;45.77;95041.75;5058115;28;19992;-59
2022/06/19 09:48:40;;;;;;;;;;;;;;;18.02;46.87;95038.59;5059434;28;20026;-60
2022/06/19 09:51:05;;;;;;;;;;;;;;;17.90;46.57;95064.75;5046809;28;19986;-59
2022/06/19 09:53:30;;;;;;;;;;;;;;;18.30;46.37;95063.09;5059154;28;19990;-59
2022/06/19 09:55:59;;;;;;;;;;;;;;;18.32;45.14;95058.28;5059179;28;19961;-60
2022/06/19 09:58:29;;;;;;;;;;;;;;;19.25;43.31;95059.03;5058747;28;20372;-60
2022/06/19 10:00:55;;;;;;;;;;;;;;;19.24;43.04;95056.56;5058698;28;20208;-60
2022/06/19 10:03:23;;;;;;;;;;;;;;;19.69;42.41;95052.09;5059082;28;19998;-59
2022/06/19 10:05:53;;;;;;;;;;;;;;;19.08;42.95;95050.94;5058828;28;20007;-59
2022/06/19 10:08:20;;;;;;;;;;;;;;;20.01;40.64;95043.31;5040779;28;19965;-60
2022/06/19 10:10:50;;;;;;;;;;;;;;;20.38;38.45;95028.28;5058621;28;20286;-59
2022/06/19 10:13:17;;;;;;;;;;;;;;;20.25;41.35;95051.13;5058758;28;20450;-60
2022/06/19 10:15:42;;;;;;;;;;;;;;;20.60;39.94;95046.34;5041202;28;20012;-60
2022/06/19 10:18:08;;;;;;;;;;;;;;;20.64;39.57;95035.84;5058528;28;19991;-61
2022/06/19 10:20:56;;;;;;;;;;;;;;;21.19;37.86;95033.00;5046338;28;19952;-59
2022/06/19 10:23:39;;;;;;;;;;;;;;;20.82;38.93;95034.63;5041393;28;19980;-61
2022/06/19 10:26:04;;;;;;;;;;;;;;;21.06;38.11;95024.28;5057898;28;20000;-60
2022/06/19 10:28:35;;;;;;;;;;;;;;;21.16;37.66;95022.69;5057715;28;19947;-61
2022/06/19 10:31:00;;;;;;;;;;;;;;;22.43;35.08;95018.38;5051379;28;20396;-60
2022/06/19 10:33:30;;;;;;;;;;;;;;;23.06;34.28;95020.03;5057595;28;20031;-59
2022/06/19 10:35:57;;;;;;;;;;;;;;;21.97;36.39;95045.13;5058070;28;20220;-61
2022/06/19 10:38:25;;;;;;;;;;;;;;;22.04;36.35;95047.56;5040002;28;20089;-61
2022/06/19 10:41:09;;;;;;;;;;;;;;;21.51;38.52;95051.09;5057478;28;20388;-61
2022/06/19 10:43:35;;;;;;;;;;;;;;;21.67;37.78;95059.28;5058474;28;20040;-60
2022/06/19 10:46:03;;;;;;;;;;;;;;;21.00;38.77;95065.88;5057539;28;20029;-60
2022/06/19 10:48:30;;;;;;;;;;;;;;;20.48;38.50;95060.00;5057457;28;19960;-60
2022/06/19 10:51:08;;;;;;;;;;;;;;;20.28;39.36;95053.31;5057899;28;19977;-60
2022/06/19 10:53:52;;;;;;;;;;;;;;;20.29;39.50;95043.34;5045881;28;20094;-61
2022/06/19 10:56:35;;;;;;;;;;;;;;;21.49;37.29;95026.19;5054544;28;19962;-59
2022/06/19 10:59:01;;;;;;;;;;;;;;;22.02;35.67;95009.91;5056572;28;19979;-61
2022/06/19 11:04:18;;;;;;;;;;;;;;;24.24;32.17;94986.53;5057909;28;20032;-60
2022/06/19 11:06:44;;;;;;;;;;;;;;;24.76;31.99;94967.09;5039210;28;19967;-59
2022/06/19 11:09:13;;;;;;;;;;;;;;;25.69;28.58;94954.47;5057190;28;20035;-60
2022/06/19 11:11:39;;;;;;;;;;;;;;;26.70;27.80;94953.59;5058260;28;20056;-60
2022/06/19 11:14:12;;;;;;;;;;;;;;;27.64;27.10;94952.75;5057495;28;20065;-60
2022/06/19 11:16:54;;;;;;;;;;;;;;;28.38;26.91;94950.84;5073757;28;20642;-60
2022/06/19 11:19:33;;;;;;;;;;;;;;;29.37;25.46;94939.38;5056663;28;19982;-60
2022/06/19 11:21:59;;;;;;;;;;;;;;;29.99;22.86;94923.06;5053399;28;19929;-60
2022/06/19 11:24:28;;;;;;;;;;;;;;;29.85;22.18;94884.84;5057439;28;20029;-59
2022/06/19 11:26:53;;;;;;;;;;;;;;;30.75;22.67;94868.00;5054594;28;19977;-61
2022/06/19 11:29:20;;;;;;;;;;;;;;;30.81;22.00;94864.75;5038778;28;20646;-60
2022/06/19 11:32:04;;;;;;;;;;;;;;;31.08;21.60;94857.22;5060658;28;19916;-60
2022/06/19 11:34:44;;;;;;;;;;;;;;;31.14;22.33;94849.63;5073059;28;19920;-60
2022/06/19 11:37:18;;;;;;;;;;;;;;;31.93;22.14;94844.75;5061634;28;19925;-60
2022/06/19 11:39:44;;;;;;;;;;;;;;;32.49;20.42;94865.66;5042097;28;19920;-60
2022/06/19 11:42:20;;;;;;;;;;;;;;;32.24;20.51;94866.34;5061094;28;19928;-59
2022/06/19 11:44:52;;;;;;;;;;;;;;;32.86;21.10;94870.44;5046314;28;19924;-60
2022/06/19 11:47:17;;;;;;;;;;;;;;;33.03;21.19;94874.97;5056164;28;19917;-58
2022/06/19 11:49:43;;;;;;;;;;;;;;;32.43;19.85;94889.00;5065019;28;20441;-59
2022/06/19 11:52:18;;;;;;;;;;;;;;;33.02;20.46;94892.66;5048250;28;19931;-58
2022/06/19 11:54:45;;;;;;;;;;;;;;;33.02;21.77;94887.13;5058824;28;20314;-59
2022/06/19 11:57:33;;;;;;;;;;;;;;;33.84;19.77;94887.34;5061511;28;20371;-57
2022/06/19 12:00:00;;;;;;;;;;;;;;;33.86;18.50;94887.00;5048965;28;19978;-58
2022/06/19 12:02:35;;;;;;;;;;;;;;;33.62;19.23;94886.72;5042960;28;19978;-58
2022/06/19 12:05:02;;;;;;;;;;;;;;;33.49;19.23;94898.91;5061359;28;19916;-59
2022/06/19 12:07:29;;;;;;;;;;;;;;;33.39;19.10;94911.97;5043212;28;20263;-57
2022/06/19 12:09:58;;;;;;;;;;;;;;;32.96;19.70;94919.59;5042285;28;19990;-59
2022/06/19 12:12:23;;;;;;;;;;;;;;;32.74;19.84;94913.38;5047760;28;20022;-60
2022/06/19 12:14:52;;;;;;;;;;;;;;;33.13;19.15;94904.84;5060193;28;20026;-58
2022/06/19 12:17:25;;;;;;;;;;;;;;;33.68;19.03;94886.47;5060846;28;20436;-58
2022/06/19 12:19:57;;;;;;;;;;;;;;;33.50;19.29;94882.00;5060656;28;19920;-59
2022/06/19 12:22:28;;;;;;;;;;;;;;;34.00;18.77;94881.13;5060038;28;19927;-58
2022/06/19 12:25:01;;;;;;;;;;;;;;;34.71;18.18;94882.69;5060870;28;19974;-59
2022/06/19 12:27:27;;;;;;;;;;;;;;;33.74;20.20;94868.50;5061277;28;20325;-58
2022/06/19 12:29:54;;;;;;;;;;;;;;;34.07;19.34;94861.19;5042647;28;19973;-59
2022/06/19 12:32:25;;;;;;;;;;;;;;;34.76;20.09;94863.06;5041798;28;19985;-58
2022/06/19 12:34:51;;;;;;;;;;;;;;;34.96;18.69;94847.41;5075941;28;19978;-59
2022/06/19 12:37:20;;;;;;;;;;;;;;;34.70;19.09;94858.97;5046128;28;19932;-59
2022/06/19 12:39:45;;;;;;;;;;;;;;;34.95;19.17;94865.16;5053770;28;20376;-57
2022/06/19 12:42:29;;;;;;;;;;;;;;;35.38;18.21;94861.88;5042907;28;20011;-59
2022/06/19 12:45:13;;;;;;;;;;;;;;;35.23;18.50;94853.22;5052053;28;20183;-60
2022/06/19 12:47:45;;;;;;;;;;;;;;;35.15;19.02;94856.97;5060824;28;19920;-60
2022/06/19 12:50:17;;;;;;;;;;;;;;;34.79;18.07;94868.72;5060187;28;19978;-58
2022/06/19 12:52:58;;;;;;;;;;;;;;;34.66;19.48;94879.03;5060553;28;19966;-60
2022/06/19 12:55:30;;;;;;;;;;;;;;;35.71;18.51;94880.03;5060144;28;20011;-58
2022/06/19 12:57:58;;;;;;;;;;;;;;;35.38;19.03;94876.47;5075324;28;19920;-59
2022/06/19 13:00:50;;;;;;;;;;;;;;;35.77;18.80;94888.84;5059638;28;20353;-60
2022/06/19 13:03:28;;;;;;;;;;;;;;;36.18;19.19;94908.75;5020293;28;19924;-59